»·PEaware :: VOZ1 YSSY-KLAX

VOZ1 :: YSSY-KLAX

FLIGHT INFORMATION

Flight Status: Arrived
Operator:
Virgin Blue Airlines
More flights by this operator :: More flights under this callsign
Pilot: Toby T. (11837)
Aircraft: BOEING 777-300
(B773)
More flights by this aircraft type
Origin: YSSY Kingsford Smith Intl
Australia
Destination: KLAX Los Angeles Intl
United States
More flights between these airports :: More routes between these airports
Route: +NOBAR B450 LHI/N0490F310 B450 TEKEP 30S170E 29S175E DCT 27S180E 25S175W 20S169W/N0500F330 15S164W 10S161W 05S158W 00N154W 05N150W/N0490F350 10N147W 15N144W 20N139W 23N135W 26N130W/N0480F370 FICKY ROSIN BUFIE4
File this flight plan on PilotEdge
Remarks:
Altitude:
(Current/Filed)
29,000ft
Speed:
(Current/Filed)
495kts
Departed: 02-Jul-16 02:47 PM
Arrived: 02-Jul-16 05:58 PM
Distance/Time
Traveled:
6508nm/3:10
Distance/Time
To Go:
Arrived

Flight Plot

Page will automatically refresh every two minutes.

Flight plan parsing failed; only flown route is shown


Map Options




Map Legend


Flown Route
Filed Route
Departure Airport
Arrival Airport
Navaid (VOR, NDB)
Fix

Horizontal Profiles

Position Reports

Time Latitude Longitude Heading Altitude Ground
Speed
02-Jul-16 14:42 18.526453 -140.516458 41 31050ft 489kts
02-Jul-16 14:43 18.624319 -140.416968 41 31053ft 489kts
02-Jul-16 14:44 18.723142 -140.316336 41 31933ft 490kts
02-Jul-16 14:45 18.822154 -140.215337 41 32884ft 498kts
02-Jul-16 14:46 18.920889 -140.114447 41 34289ft 492kts
02-Jul-16 14:47 19.019220 -140.013797 40 35085ft 488kts
02-Jul-16 14:48 19.073302 -139.958364 40 35077ft 487kts
02-Jul-16 14:56 19.897545 -139.106883 40 35080ft 489kts
02-Jul-16 14:57 19.991207 -139.009210 40 35081ft 490kts
02-Jul-16 14:58 20.080492 -138.898841 47 35081ft 494kts
02-Jul-16 14:59 20.167229 -138.784457 46 35084ft 500kts
02-Jul-16 15:00 20.256421 -138.668955 46 35088ft 501kts
02-Jul-16 15:01 20.345011 -138.554395 46 35093ft 501kts
02-Jul-16 15:02 20.433751 -138.439238 46 35099ft 501kts
02-Jul-16 15:03 20.522110 -138.324321 46 35104ft 501kts
02-Jul-16 15:04 20.609241 -138.210770 46 35106ft 501kts
02-Jul-16 15:05 20.699228 -138.093260 46 35108ft 502kts
02-Jul-16 15:06 20.787847 -137.977297 46 35108ft 503kts
02-Jul-16 15:07 20.876447 -137.861122 46 35109ft 503kts
02-Jul-16 15:08 20.965180 -137.744529 46 35110ft 504kts
02-Jul-16 15:09 21.053519 -137.628215 46 35109ft 504kts
02-Jul-16 15:10 21.141811 -137.511718 46 35110ft 505kts
02-Jul-16 15:11 21.230671 -137.394226 47 35109ft 504kts
02-Jul-16 15:12 21.319150 -137.276989 47 35110ft 504kts
02-Jul-16 15:13 21.407252 -137.160005 47 35109ft 504kts
02-Jul-16 15:14 21.495263 -137.042893 47 35111ft 505kts
02-Jul-16 15:15 21.583708 -136.924949 47 35114ft 506kts
02-Jul-16 15:16 21.672345 -136.806493 47 35116ft 506kts
02-Jul-16 15:17 21.760590 -136.688305 47 35118ft 506kts
02-Jul-16 15:18 21.848777 -136.569936 47 35119ft 506kts
02-Jul-16 15:19 21.936900 -136.451393 47 35121ft 506kts
02-Jul-16 15:20 22.009714 -136.353247 47 35122ft 506kts
02-Jul-16 15:21 22.112834 -136.213942 47 35124ft 506kts
02-Jul-16 15:22 22.185900 -136.115018 47 35124ft 506kts
02-Jul-16 15:23 22.288378 -135.975959 47 35125ft 506kts
02-Jul-16 15:24 22.361285 -135.876807 47 35125ft 506kts
02-Jul-16 15:25 22.449300 -135.756857 47 35133ft 506kts
02-Jul-16 15:26 22.536848 -135.637273 47 35149ft 506kts
02-Jul-16 15:27 22.623949 -135.518027 47 35164ft 505kts
02-Jul-16 15:28 22.711258 -135.398222 47 35165ft 506kts
02-Jul-16 15:29 22.798333 -135.278463 47 35165ft 506kts
02-Jul-16 15:30 22.885965 -135.157876 47 35165ft 506kts
02-Jul-16 15:31 22.973052 -135.037338 47 35166ft 506kts
02-Jul-16 15:32 23.056176 -134.913700 52 35165ft 509kts
02-Jul-16 15:33 23.134981 -134.785542 52 35166ft 509kts
02-Jul-16 15:34 23.214678 -134.658076 51 35165ft 509kts
02-Jul-16 15:35 23.294387 -134.531126 51 35166ft 509kts
02-Jul-16 15:36 23.374071 -134.403526 51 35165ft 509kts
02-Jul-16 15:37 23.453926 -134.275280 51 35166ft 509kts
02-Jul-16 15:38 23.532878 -134.148160 52 35165ft 509kts
02-Jul-16 15:39 23.612251 -134.020038 52 35166ft 509kts
02-Jul-16 15:40 23.691790 -133.891322 52 35165ft 509kts
02-Jul-16 15:41 23.770954 -133.762884 52 35166ft 509kts
02-Jul-16 15:42 23.848579 -133.636623 52 35170ft 514kts
02-Jul-16 15:43 23.928301 -133.506620 52 35170ft 514kts
02-Jul-16 15:44 24.008002 -133.376311 52 35172ft 514kts
02-Jul-16 15:45 24.087634 -133.245773 53 35171ft 515kts
02-Jul-16 15:46 24.167218 -133.114968 53 35178ft 515kts
02-Jul-16 15:47 24.246517 -132.984287 53 35179ft 515kts
02-Jul-16 15:48 24.325691 -132.853466 53 35183ft 516kts
02-Jul-16 15:49 24.405305 -132.721564 53 35184ft 516kts
02-Jul-16 15:50 24.484595 -132.589846 53 35180ft 516kts
02-Jul-16 15:51 24.563769 -132.457961 54 35178ft 516kts
02-Jul-16 15:52 24.642846 -132.325881 54 35175ft 516kts
02-Jul-16 15:53 24.721548 -132.194070 54 35175ft 516kts
02-Jul-16 15:54 24.800425 -132.061607 54 35174ft 516kts
02-Jul-16 15:55 24.879090 -131.929130 54 35174ft 516kts
02-Jul-16 15:56 24.957375 -131.796931 54 35174ft 516kts
02-Jul-16 15:57 25.036070 -131.663670 54 35176ft 516kts
02-Jul-16 15:58 25.114365 -131.530717 54 35178ft 516kts
02-Jul-16 15:59 25.192543 -131.397590 54 35177ft 515kts
02-Jul-16 16:00 25.270343 -131.264735 55 35179ft 515kts
02-Jul-16 16:01 25.348194 -131.131417 55 35180ft 515kts
02-Jul-16 16:02 25.425922 -130.997933 55 35179ft 515kts
02-Jul-16 16:03 25.503501 -130.864324 55 35181ft 515kts
02-Jul-16 16:04 25.581043 -130.730398 55 35179ft 516kts
02-Jul-16 16:05 25.658329 -130.596528 55 35179ft 516kts
02-Jul-16 16:06 25.735979 -130.461639 55 35178ft 516kts
02-Jul-16 16:07 25.812978 -130.327490 55 35179ft 516kts
02-Jul-16 16:08 25.890308 -130.192740 55 35178ft 516kts
02-Jul-16 16:09 25.967224 -130.057635 55 35177ft 516kts
02-Jul-16 16:10 26.049415 -129.927419 48 35181ft 514kts
02-Jul-16 16:11 26.139651 -129.802717 49 35177ft 515kts
02-Jul-16 16:12 26.228269 -129.677678 49 35178ft 515kts
02-Jul-16 16:13 26.317256 -129.552296 49 35176ft 515kts
02-Jul-16 16:14 26.405942 -129.426446 49 35178ft 515kts
02-Jul-16 16:15 26.494506 -129.300345 49 35176ft 515kts
02-Jul-16 16:16 26.582663 -129.174461 50 35180ft 515kts
02-Jul-16 16:17 26.671352 -129.047461 50 35177ft 515kts
02-Jul-16 16:18 26.759326 -128.921128 50 35183ft 515kts
02-Jul-16 16:19 26.847785 -128.793739 50 35176ft 515kts
02-Jul-16 16:20 26.935263 -128.667403 50 35183ft 515kts
02-Jul-16 16:21 27.023499 -128.539610 50 35177ft 515kts
02-Jul-16 16:22 27.111318 -128.412054 50 35178ft 515kts
02-Jul-16 16:23 27.184482 -128.305503 50 35179ft 515kts
02-Jul-16 16:24 27.286346 -128.156725 50 35183ft 515kts
02-Jul-16 16:25 27.359322 -128.049830 50 35179ft 515kts
02-Jul-16 16:26 27.445161 -127.923769 51 35177ft 516kts
02-Jul-16 16:27 27.533248 -127.794008 52 35174ft 525kts
02-Jul-16 16:28 27.622178 -127.662625 52 35166ft 524kts
02-Jul-16 16:29 27.710688 -127.531466 53 35165ft 524kts
02-Jul-16 16:30 27.798914 -127.400334 53 35161ft 525kts
02-Jul-16 16:31 27.887108 -127.268850 53 35159ft 526kts
02-Jul-16 16:32 27.975883 -127.136095 53 35158ft 526kts
02-Jul-16 16:33 28.063923 -127.004036 53 35156ft 526kts
02-Jul-16 16:34 28.152250 -126.871135 53 35159ft 527kts
02-Jul-16 16:35 28.240214 -126.738370 53 35156ft 527kts
02-Jul-16 16:36 28.328355 -126.604923 53 35157ft 527kts
02-Jul-16 16:37 28.416661 -126.470805 53 35153ft 527kts
02-Jul-16 16:38 28.504528 -126.336933 53 35154ft 527kts
02-Jul-16 16:39 28.591988 -126.203260 53 35150ft 527kts
02-Jul-16 16:40 28.679600 -126.068931 53 35150ft 527kts
02-Jul-16 16:41 28.766798 -125.934807 53 35151ft 527kts
02-Jul-16 16:42 28.854171 -125.799986 53 35148ft 527kts
02-Jul-16 16:43 28.941658 -125.664552 53 35149ft 527kts
02-Jul-16 16:44 29.028479 -125.529715 53 35147ft 527kts
02-Jul-16 16:45 29.115414 -125.394263 53 35147ft 527kts
02-Jul-16 16:46 29.202230 -125.258555 53 35145ft 527kts
02-Jul-16 16:47 29.288634 -125.123048 53 35141ft 527kts
02-Jul-16 16:48 29.375183 -124.986868 53 35144ft 527kts
02-Jul-16 16:49 29.461299 -124.850922 53 35141ft 527kts
02-Jul-16 16:50 29.547849 -124.713836 53 35145ft 527kts
02-Jul-16 16:51 29.633968 -124.576978 54 35143ft 527kts
02-Jul-16 16:52 29.719942 -124.439891 54 35144ft 527kts
02-Jul-16 16:53 29.805781 -124.302561 54 35144ft 527kts
02-Jul-16 16:54 29.891218 -124.165411 54 35141ft 527kts
02-Jul-16 16:55 29.976530 -124.028001 54 35143ft 527kts
02-Jul-16 16:56 30.062250 -123.889461 54 35140ft 527kts
02-Jul-16 16:57 30.147536 -123.751150 54 35142ft 527kts
02-Jul-16 16:58 30.232696 -123.612568 54 35140ft 527kts
02-Jul-16 16:59 30.316866 -123.475126 54 35141ft 527kts
02-Jul-16 17:00 30.402300 -123.335139 54 35140ft 527kts
02-Jul-16 17:01 30.486997 -123.195874 54 35141ft 527kts
02-Jul-16 17:02 30.571577 -123.056313 54 35140ft 527kts
02-Jul-16 17:03 30.656012 -122.916503 54 35140ft 528kts
02-Jul-16 17:04 30.740020 -122.776911 54 35140ft 528kts
02-Jul-16 17:05 30.824146 -122.636626 54 35140ft 528kts
02-Jul-16 17:06 30.907842 -122.496563 55 35140ft 528kts
02-Jul-16 17:07 30.992200 -122.354887 55 35140ft 528kts
02-Jul-16 17:08 31.075313 -122.214800 55 35140ft 528kts
02-Jul-16 17:09 31.158824 -122.073536 55 35140ft 528kts
02-Jul-16 17:10 31.242202 -121.931987 55 35140ft 528kts
02-Jul-16 17:11 31.325389 -121.790247 55 35140ft 528kts
02-Jul-16 17:12 31.408651 -121.648354 55 35139ft 528kts
02-Jul-16 17:13 31.491408 -121.506022 55 35140ft 528kts
02-Jul-16 17:14 31.570077 -121.360646 64 35139ft 527kts
02-Jul-16 17:15 31.624491 -121.200773 69 35140ft 526kts
02-Jul-16 17:16 31.678508 -121.041296 68 35140ft 526kts
02-Jul-16 17:17 31.733901 -120.881299 68 35140ft 526kts
02-Jul-16 17:18 31.788401 -120.722067 68 35139ft 526kts
02-Jul-16 17:19 31.843078 -120.562245 68 35140ft 526kts
02-Jul-16 17:20 31.897009 -120.402535 69 35139ft 526kts
02-Jul-16 17:21 31.958449 -120.246398 54 35140ft 527kts
02-Jul-16 17:22 32.041712 -120.140985 44 35133ft 526kts
02-Jul-16 17:23 32.159299 -119.993696 46 35139ft 526kts
02-Jul-16 17:24 32.242507 -119.888574 46 34764ft 526kts
02-Jul-16 17:25 32.340685 -119.763992 46 32670ft 511kts
02-Jul-16 17:26 32.436227 -119.641654 47 30823ft 495kts
02-Jul-16 17:27 32.528296 -119.523566 47 29058ft 479kts
02-Jul-16 17:28 32.616825 -119.409436 48 27351ft 462kts
02-Jul-16 17:29 32.702444 -119.298697 48 25652ft 446kts
02-Jul-16 17:30 32.785466 -119.191910 48 23982ft 431kts
02-Jul-16 17:31 32.865199 -119.088549 48 22302ft 418kts
02-Jul-16 17:32 32.942861 -118.987510 48 20416ft 413kts
02-Jul-16 17:33 33.021019 -118.885949 48 18010ft 414kts
02-Jul-16 17:34 33.098085 -118.784888 47 15611ft 405kts
02-Jul-16 17:35 33.172544 -118.687031 47 13214ft 390kts
02-Jul-16 17:36 33.242916 -118.594751 47 12209ft 357kts
02-Jul-16 17:37 33.307494 -118.509388 47 12078ft 335kts
02-Jul-16 17:38 33.367179 -118.422366 63 12076ft 340kts
02-Jul-16 17:39 33.391241 -118.313036 79 12077ft 337kts
02-Jul-16 17:40 33.406170 -118.206449 79 12078ft 315kts
02-Jul-16 17:41 33.440035 -118.110457 40 11119ft 325kts
02-Jul-16 17:42 33.512828 -118.053640 35 10363ft 298kts
02-Jul-16 17:43 33.582849 -118.005571 12 9384ft 281kts
02-Jul-16 17:44 33.662147 -118.011728 345 7847ft 287kts
02-Jul-16 17:45 33.734228 -118.037819 344 7349ft 254kts
02-Jul-16 17:46 33.799566 -118.054223 7 6627ft 234kts
02-Jul-16 17:47 33.863257 -118.037477 12 5334ft 234kts
02-Jul-16 17:48 33.926943 -118.022771 356 4036ft 231kts
02-Jul-16 17:49 33.962498 -118.077162 280 3582ft 223kts
02-Jul-16 17:50 33.960962 -118.151271 266 3574ft 219kts
02-Jul-16 17:51 33.953032 -118.229576 265 2607ft 242kts
02-Jul-16 17:52 33.945536 -118.302926 266 1432ft 198kts
02-Jul-16 17:53 33.939723 -118.360169 263 584ft 172kts
02-Jul-16 17:54 33.935001 -118.405639 262 140ft 34kts
02-Jul-16 17:55 33.935886 -118.408301 283 140ft 0kts
02-Jul-16 17:56 33.938607 -118.409091 43 140ft 7kts
02-Jul-16 17:57 33.940777 -118.408179 41 140ft 5kts
02-Jul-16 17:58 33.940944 -118.407757 71 140ft 0kts
02-Jul-16 17:59 33.940944 -118.407757 71 140ft 0kts

Navigation Log

Ident Type
Flight plan parsing failed, navigation log unavailable